createdAt,value
2016-11-25T00:00:13.342Z,0.42
2016-11-25T00:01:22.032Z,0.42
2016-11-25T00:02:30.723Z,0.33
2016-11-25T00:03:39.419Z,0.31
2016-11-25T00:04:48.111Z,0.33
2016-11-25T00:05:56.798Z,0.47
2016-11-25T00:07:05.489Z,0.48
2016-11-25T00:08:14.206Z,0.44
2016-11-25T00:09:22.895Z,0.37
2016-11-25T00:10:31.583Z,0.42
2016-11-25T00:11:40.276Z,0.31
2016-11-25T00:12:48.968Z,0.27
2016-11-25T00:13:57.674Z,0.24
2016-11-25T00:15:06.362Z,0.26
2016-11-25T00:16:15.051Z,0.2
2016-11-25T00:17:23.740Z,0.19
2016-11-25T00:18:32.747Z,0.2
2016-11-25T00:19:41.439Z,0.29
2016-11-25T00:20:50.126Z,0.36
2016-11-25T00:21:58.819Z,0.42
2016-11-25T00:23:07.507Z,0.45
2016-11-25T00:24:16.196Z,0.55
2016-11-25T00:25:24.891Z,0.49
2016-11-25T00:26:33.584Z,0.59
2016-11-25T00:27:42.272Z,0.68
2016-11-25T00:28:50.964Z,0.67
2016-11-25T00:29:59.663Z,0.74
2016-11-25T00:31:08.359Z,0.81
2016-11-25T00:32:17.060Z,0.82
2016-11-25T00:33:25.753Z,0.84
2016-11-25T00:34:34.440Z,0.89
2016-11-25T00:35:43.127Z,0.81
2016-11-25T00:36:51.815Z,0.82
2016-11-25T00:38:00.506Z,0.82
2016-11-25T00:39:09.194Z,0.89
2016-11-25T00:40:17.888Z,0.85
2016-11-25T00:41:26.575Z,0.94
2016-11-25T00:42:35.267Z,0.95
2016-11-25T00:43:43.962Z,0.84
2016-11-25T00:44:52.663Z,0.76
2016-11-25T00:46:01.348Z,0.76
2016-11-25T00:47:10.041Z,0.76
2016-11-25T00:48:18.731Z,0.76
2016-11-25T00:49:27.418Z,0.76
2016-11-25T00:50:36.102Z,0.7
2016-11-25T00:51:44.796Z,0.78
2016-11-25T00:52:53.521Z,0.76
2016-11-25T00:54:02.214Z,0.84
2016-11-25T00:55:10.898Z,0.82
2016-11-25T00:56:19.585Z,0.86
2016-11-25T00:57:28.281Z,0.86
2016-11-25T00:58:36.974Z,0.81
2016-11-25T00:59:45.670Z,0.81
2016-11-25T01:00:54.360Z,0.71
2016-11-25T01:02:03.080Z,0.71
2016-11-25T01:03:11.771Z,0.82
2016-11-25T01:04:20.465Z,0.86
2016-11-25T01:05:29.158Z,0.85
2016-11-25T01:06:37.850Z,0.78
2016-11-25T01:07:46.540Z,0.71
2016-11-25T01:08:55.233Z,0.7
2016-11-25T01:10:03.923Z,0.59
2016-11-25T01:11:12.619Z,0.48
2016-11-25T01:12:21.310Z,0.55
2016-11-25T01:13:30.003Z,0.49
2016-11-25T01:14:38.692Z,0.63
2016-11-25T01:15:47.390Z,0.51
2016-11-25T01:16:56.084Z,0.49
2016-11-25T01:18:04.788Z,0.39
2016-11-25T01:19:13.488Z,0.47
2016-11-25T01:20:22.185Z,0.45
2016-11-25T01:21:30.877Z,0.45
2016-11-25T01:22:39.571Z,0.45
2016-11-25T01:23:48.259Z,0.33
2016-11-25T01:24:56.951Z,0.39
2016-11-25T01:26:05.643Z,0.36
2016-11-25T01:27:14.651Z,0.33
2016-11-25T01:28:23.357Z,0.36
2016-11-25T01:29:32.047Z,0.37
2016-11-25T01:30:40.737Z,0.42
2016-11-25T01:31:49.432Z,0.42
2016-11-25T01:32:58.131Z,0.47
2016-11-25T01:34:06.866Z,0.45
2016-11-25T01:35:15.558Z,0.48
2016-11-25T01:36:24.259Z,0.51
2016-11-25T01:37:32.951Z,0.48
2016-11-25T01:38:41.642Z,0.51
2016-11-25T01:39:50.334Z,0.45
2016-11-25T01:40:59.027Z,0.4
2016-11-25T01:42:07.718Z,0.45
2016-11-25T01:43:16.416Z,0.55
2016-11-25T01:44:25.136Z,0.45
2016-11-25T01:45:33.826Z,0.49
2016-11-25T01:46:42.519Z,0.37
2016-11-25T01:47:51.210Z,0.47
2016-11-25T01:48:59.897Z,0.55
2016-11-25T01:50:08.902Z,0.55
2016-11-25T01:51:17.600Z,0.51
2016-11-25T01:52:26.293Z,0.45
2016-11-25T01:53:34.982Z,0.44
2016-11-25T01:54:43.671Z,0.47
2016-11-25T01:55:52.356Z,0.44
2016-11-25T01:57:01.052Z,0.45
2016-11-25T01:58:10.062Z,0.44
2016-11-25T01:59:18.755Z,0.42
2016-11-25T02:00:27.447Z,0.33
2016-11-25T02:01:36.137Z,0.42
2016-11-25T02:02:44.825Z,0.4
2016-11-25T02:03:53.517Z,0.34
2016-11-25T02:05:02.211Z,0.42
2016-11-25T02:06:10.906Z,0.39
2016-11-25T02:07:19.595Z,0.37
2016-11-25T02:08:28.286Z,0.4
2016-11-25T02:09:36.981Z,0.48
2016-11-25T02:10:45.671Z,0.47
2016-11-25T02:11:54.370Z,0.55
2016-11-25T02:13:03.062Z,0.47
2016-11-25T02:14:11.755Z,0.61
2016-11-25T02:15:20.445Z,0.61
2016-11-25T02:16:29.134Z,0.59
2016-11-25T02:17:37.822Z,0.63
2016-11-25T02:18:46.511Z,0.58
2016-11-25T02:19:55.248Z,0.63
2016-11-25T02:21:03.943Z,0.74
2016-11-25T02:22:12.639Z,0.71
2016-11-25T02:23:21.330Z,0.74
2016-11-25T02:24:30.027Z,0.68
2016-11-25T02:25:38.715Z,0.77
2016-11-25T02:26:47.407Z,0.76
2016-11-25T02:27:56.127Z,0.71
2016-11-25T02:29:04.821Z,0.71
2016-11-25T02:30:13.511Z,0.71
2016-11-25T02:31:22.199Z,0.77
2016-11-25T02:32:30.895Z,0.82
2016-11-25T02:33:39.911Z,0.76
2016-11-25T02:34:48.597Z,0.78
2016-11-25T02:35:57.292Z,0.81
2016-11-25T02:37:05.982Z,0.81
2016-11-25T02:38:14.669Z,0.67
2016-11-25T02:39:23.361Z,0.67
2016-11-25T02:40:32.078Z,0.74
2016-11-25T02:41:40.777Z,0.56
2016-11-25T02:42:49.779Z,0.64
2016-11-25T02:43:58.474Z,0.55
2016-11-25T02:45:07.163Z,0.58
2016-11-25T02:46:15.881Z,0.55
2016-11-25T02:47:24.571Z,0.56
2016-11-25T02:48:33.262Z,0.61
2016-11-25T02:49:41.957Z,0.61
2016-11-25T02:50:50.651Z,0.66
2016-11-25T02:51:59.354Z,0.59
2016-11-25T02:53:08.045Z,0.73
2016-11-25T02:54:16.730Z,0.68
2016-11-25T02:55:25.421Z,0.52
2016-11-25T02:56:34.117Z,0.63
2016-11-25T02:57:42.811Z,0.67
2016-11-25T02:58:51.503Z,0.58
2016-11-25T03:00:00.196Z,0.7
2016-11-25T03:01:08.888Z,0.67
2016-11-25T03:02:17.588Z,0.71
2016-11-25T03:03:26.307Z,0.73
2016-11-25T03:04:34.996Z,0.74
2016-11-25T03:05:43.685Z,0.82
2016-11-25T03:06:52.376Z,0.77
2016-11-25T03:08:01.072Z,0.81
2016-11-25T03:09:09.764Z,0.74
2016-11-25T03:10:18.464Z,0.7
2016-11-25T03:11:27.155Z,0.64
2016-11-25T03:12:35.849Z,0.64
2016-11-25T03:13:44.544Z,0.64
2016-11-25T03:14:53.237Z,0.45
2016-11-25T03:16:01.931Z,0.44
2016-11-25T03:17:10.623Z,0.48
2016-11-25T03:18:19.313Z,0.47
2016-11-25T03:19:28.009Z,0.47
2016-11-25T03:20:36.699Z,0.36
2016-11-25T03:21:45.390Z,0.37
2016-11-25T03:22:54.084Z,0.33
2016-11-25T03:24:02.776Z,0.34
2016-11-25T03:25:11.462Z,0.33
2016-11-25T03:26:20.151Z,0.39
2016-11-25T03:27:28.872Z,0.33
2016-11-25T03:28:37.561Z,0.3
2016-11-25T03:29:46.248Z,0.34
2016-11-25T03:30:54.942Z,0.27
2016-11-25T03:32:03.636Z,0.27
2016-11-25T03:33:12.325Z,0.31
2016-11-25T03:34:21.016Z,0.3
2016-11-25T03:35:29.720Z,0.31
2016-11-25T03:36:38.418Z,0.24
2016-11-25T03:37:47.116Z,0.3
2016-11-25T03:38:55.808Z,0.29
2016-11-25T03:40:04.503Z,0.36
2016-11-25T03:41:13.197Z,0.29
2016-11-25T03:42:21.892Z,0.29
2016-11-25T03:43:30.584Z,0.33
2016-11-25T03:44:39.278Z,0.3
2016-11-25T03:45:47.969Z,0.3
2016-11-25T03:46:56.666Z,0.3
2016-11-25T03:48:05.359Z,0.27
2016-11-25T03:49:14.053Z,0.31
2016-11-25T03:50:22.746Z,0.3
2016-11-25T03:51:31.435Z,0.31
2016-11-25T03:52:40.128Z,0.36
2016-11-25T03:53:48.823Z,0.31
2016-11-25T03:54:57.515Z,0.37
2016-11-25T03:56:06.205Z,0.37
2016-11-25T03:57:14.896Z,0.27
2016-11-25T03:58:23.586Z,0.45
2016-11-25T03:59:32.285Z,0.45
2016-11-25T04:00:41.029Z,0.4
2016-11-25T04:01:49.725Z,0.29
2016-11-25T04:02:58.724Z,0.4
2016-11-25T04:04:07.416Z,0.4
2016-11-25T04:05:16.113Z,0.34
2016-11-25T04:06:24.807Z,0.34
2016-11-25T04:07:33.498Z,0.39
2016-11-25T04:08:42.191Z,0.29
2016-11-25T04:09:50.897Z,0.24
2016-11-25T04:10:59.586Z,0.34
2016-11-25T04:12:08.277Z,0.33
2016-11-25T04:13:16.975Z,0.33
2016-11-25T04:14:25.665Z,0.31
2016-11-25T04:15:34.361Z,0.48
2016-11-25T04:16:43.053Z,0.33
2016-11-25T04:17:51.745Z,0.31
2016-11-25T04:19:00.449Z,0.42
2016-11-25T04:20:09.143Z,0.36
2016-11-25T04:21:17.831Z,0.39
2016-11-25T04:22:26.524Z,0.42
2016-11-25T04:23:35.217Z,0.4
2016-11-25T04:24:43.937Z,0.39
2016-11-25T04:25:52.627Z,0.36
2016-11-25T04:27:01.321Z,0.34
2016-11-25T04:28:10.010Z,0.4
2016-11-25T04:29:18.728Z,0.39
2016-11-25T04:30:27.423Z,0.39
2016-11-25T04:31:36.116Z,0.39
2016-11-25T04:32:44.810Z,0.36
2016-11-25T04:33:53.503Z,0.36
2016-11-25T04:35:02.195Z,0.37
2016-11-25T04:36:10.888Z,0.3
2016-11-25T04:37:19.574Z,0.31
2016-11-25T04:38:28.265Z,0.34
2016-11-25T04:39:36.955Z,0.56
2016-11-25T04:40:45.642Z,0.71
2016-11-25T04:41:54.337Z,0.81
2016-11-25T04:43:03.027Z,0.81
2016-11-25T04:44:11.721Z,0.89
2016-11-25T04:45:20.412Z,0.94
2016-11-25T04:46:29.132Z,0.94
2016-11-25T04:47:37.859Z,0.96
2016-11-25T04:48:46.556Z,0.88
2016-11-25T04:49:55.259Z,0.99
2016-11-25T04:51:03.956Z,0.94
2016-11-25T04:52:12.674Z,0.91
2016-11-25T04:53:21.361Z,0.94
2016-11-25T04:54:30.051Z,1.02
2016-11-25T04:55:38.743Z,0.96
2016-11-25T04:56:47.465Z,0.89
2016-11-25T04:57:56.155Z,0.88
2016-11-25T04:59:04.850Z,0.88
2016-11-25T05:00:13.537Z,0.88
2016-11-25T05:01:22.231Z,0.89
2016-11-25T05:02:30.919Z,0.82
2016-11-25T05:03:39.616Z,0.89
2016-11-25T05:04:48.315Z,0.92
2016-11-25T05:05:57.011Z,0.94
2016-11-25T05:07:05.707Z,0.94
2016-11-25T05:08:14.396Z,0.85
2016-11-25T05:09:23.090Z,0.84
2016-11-25T05:10:31.791Z,0.85
2016-11-25T05:11:40.539Z,0.85
2016-11-25T05:12:49.233Z,0.78
2016-11-25T05:13:57.930Z,0.81
2016-11-25T05:15:06.633Z,0.71
2016-11-25T05:16:15.327Z,0.7
2016-11-25T05:17:24.020Z,0.71
2016-11-25T05:18:32.713Z,0.76
2016-11-25T05:19:41.404Z,0.77
2016-11-25T05:20:50.133Z,0.85
2016-11-25T05:21:58.854Z,0.91
2016-11-25T05:23:07.548Z,0.94
2016-11-25T05:24:16.240Z,0.88
2016-11-25T05:25:24.931Z,0.89
2016-11-25T05:26:33.636Z,0.86
2016-11-25T05:27:42.334Z,0.86
2016-11-25T05:28:51.063Z,0.89
2016-11-25T05:29:59.751Z,1.02
2016-11-25T05:31:08.443Z,0.99
2016-11-25T05:32:17.457Z,0.96
2016-11-25T05:33:26.155Z,0.94
2016-11-25T05:34:34.889Z,1.04
2016-11-25T05:35:43.578Z,1.1
2016-11-25T05:36:52.271Z,1.12
2016-11-25T05:38:00.957Z,1.07
2016-11-25T05:39:09.679Z,1.1
2016-11-25T05:40:18.376Z,1.03
2016-11-25T05:41:27.067Z,1
2016-11-25T05:42:35.769Z,1.07
2016-11-25T05:43:44.772Z,1.03
2016-11-25T05:44:53.471Z,0.92
2016-11-25T05:46:02.158Z,0.95
2016-11-25T05:47:10.849Z,0.76
2016-11-25T05:48:19.543Z,0.81
2016-11-25T05:49:28.230Z,0.82
2016-11-25T05:50:36.933Z,0.7
2016-11-25T05:51:45.626Z,0.58
2016-11-25T05:52:54.318Z,0.58
2016-11-25T05:54:03.011Z,0.49
2016-11-25T05:55:11.700Z,0.49
2016-11-25T05:56:20.391Z,0.48
2016-11-25T05:57:29.086Z,0.48
2016-11-25T05:58:37.775Z,0.36
2016-11-25T05:59:46.473Z,0.51
2016-11-25T06:00:55.264Z,0.49
2016-11-25T06:02:03.965Z,0.59
2016-11-25T06:03:12.655Z,0.56
2016-11-25T06:04:21.349Z,0.64
2016-11-25T06:05:30.042Z,0.55
2016-11-25T06:06:38.737Z,0.61
2016-11-25T06:07:47.460Z,0.47
2016-11-25T06:08:56.151Z,0.44
2016-11-25T06:10:04.844Z,0.47
2016-11-25T06:11:13.539Z,0.36
2016-11-25T06:12:22.236Z,0.33
2016-11-25T06:13:30.928Z,0.42
2016-11-25T06:14:39.624Z,0.44
2016-11-25T06:15:48.318Z,0.44
2016-11-25T06:16:57.009Z,0.49
2016-11-25T06:18:05.698Z,0.4
2016-11-25T06:19:14.390Z,0.4
2016-11-25T06:20:23.088Z,0.44
2016-11-25T06:21:31.775Z,0.48
2016-11-25T06:22:40.475Z,0.44
2016-11-25T06:23:49.168Z,0.49
2016-11-25T06:24:57.864Z,0.48
2016-11-25T06:26:06.563Z,0.44
2016-11-25T06:27:15.259Z,0.48
2016-11-25T06:28:23.956Z,0.47
2016-11-25T06:29:32.649Z,0.48
2016-11-25T06:30:41.341Z,0.51
2016-11-25T06:31:50.038Z,0.49
2016-11-25T06:32:59.046Z,0.39
2016-11-25T06:34:07.735Z,0.44
2016-11-25T06:35:16.446Z,0.47
2016-11-25T06:36:25.142Z,0.45
2016-11-25T06:37:33.832Z,0.44
2016-11-25T06:38:42.529Z,0.37
2016-11-25T06:39:51.234Z,0.36
2016-11-25T06:40:59.924Z,0.47
2016-11-25T06:42:08.616Z,0.51
2016-11-25T06:43:17.341Z,0.51
2016-11-25T06:44:26.032Z,0.37
2016-11-25T06:45:34.726Z,0.49
2016-11-25T06:46:43.416Z,0.49
2016-11-25T06:47:52.114Z,0.37
2016-11-25T06:49:00.843Z,0.44
2016-11-25T06:50:09.536Z,0.37
2016-11-25T06:51:18.249Z,0.45
2016-11-25T06:52:26.970Z,0.47
2016-11-25T06:53:35.656Z,0.48
2016-11-25T06:54:44.352Z,0.33
2016-11-25T06:55:53.049Z,0.34
2016-11-25T06:57:01.741Z,0.29
2016-11-25T06:58:10.467Z,0.26
2016-11-25T06:59:19.158Z,0.26
2016-11-25T07:00:27.853Z,0.3
2016-11-25T07:01:36.548Z,0.3
2016-11-25T07:02:45.237Z,0.29
2016-11-25T07:03:53.957Z,0.26
2016-11-25T07:05:02.649Z,0.26
2016-11-25T07:06:11.344Z,0.23
2016-11-25T07:07:20.034Z,0.15
2016-11-25T07:08:28.733Z,0.2
2016-11-25T07:09:37.428Z,0.16
2016-11-25T07:10:46.128Z,0.18
2016-11-25T07:11:54.821Z,0.18
2016-11-25T07:13:03.513Z,0.18
2016-11-25T07:14:12.206Z,0.15
2016-11-25T07:15:20.899Z,0.15
2016-11-25T07:16:29.593Z,0.16
2016-11-25T07:17:38.280Z,0.19
2016-11-25T07:18:46.973Z,0.2
2016-11-25T07:19:55.668Z,0.13
2016-11-25T07:21:04.356Z,0.18
2016-11-25T07:22:13.059Z,0.26
2016-11-25T07:23:21.751Z,0.24
2016-11-25T07:24:30.447Z,0.45
2016-11-25T07:25:39.138Z,0.33
2016-11-25T07:26:47.835Z,0.34
2016-11-25T07:27:56.528Z,0.37
2016-11-25T07:29:05.218Z,0.34
2016-11-25T07:30:13.911Z,0.27
2016-11-25T07:31:22.599Z,0.29
2016-11-25T07:32:31.297Z,0.3
2016-11-25T07:33:39.992Z,0.24
2016-11-25T07:34:48.718Z,0.27
2016-11-25T07:35:57.413Z,0.26
2016-11-25T07:37:06.107Z,0.24
2016-11-25T07:38:14.801Z,0.24
2016-11-25T07:39:23.492Z,0.29
2016-11-25T07:40:32.181Z,0.3
2016-11-25T07:41:40.880Z,0.39
2016-11-25T07:42:49.580Z,0.48
2016-11-25T07:43:58.272Z,0.51
2016-11-25T07:45:06.966Z,0.61
2016-11-25T07:46:15.664Z,0.55
2016-11-25T07:47:24.359Z,0.64
2016-11-25T07:48:33.044Z,0.56
2016-11-25T07:49:41.740Z,0.58
2016-11-25T07:50:50.451Z,0.51
2016-11-25T07:51:59.140Z,0.55
2016-11-25T07:53:07.864Z,0.51
2016-11-25T07:54:16.557Z,0.58
2016-11-25T07:55:25.600Z,0.47
2016-11-25T07:56:34.320Z,0.49
2016-11-25T07:57:43.010Z,0.48
2016-11-25T07:58:51.703Z,0.47
2016-11-25T08:00:00.398Z,0.44
2016-11-25T08:01:09.101Z,0.45
2016-11-25T08:02:17.795Z,0.45
2016-11-25T08:03:26.484Z,0.45
2016-11-25T08:04:35.181Z,0.51
2016-11-25T08:05:43.869Z,0.47
2016-11-25T08:06:52.560Z,0.48
2016-11-25T08:08:01.258Z,0.49
2016-11-25T08:09:10.262Z,0.47
2016-11-25T08:10:18.952Z,0.55
2016-11-25T08:11:27.645Z,0.66
2016-11-25T08:12:36.347Z,0.63
2016-11-25T08:13:45.043Z,0.63
2016-11-25T08:14:53.735Z,0.66
2016-11-25T08:16:02.424Z,0.64
2016-11-25T08:17:11.123Z,0.82
2016-11-25T08:18:19.818Z,0.94
2016-11-25T08:19:28.510Z,1.22
2016-11-25T08:20:37.201Z,1.34
2016-11-25T08:21:45.893Z,1.36
2016-11-25T08:22:54.590Z,1.3
2016-11-25T08:24:03.328Z,1.42
2016-11-25T08:25:12.025Z,1.42
2016-11-25T08:26:20.729Z,1.46
2016-11-25T08:27:29.423Z,1.39
2016-11-25T08:28:38.145Z,1.32
2016-11-25T08:29:46.860Z,1.36
2016-11-25T08:30:55.562Z,1.45
2016-11-25T08:32:04.253Z,1.43
2016-11-25T08:33:12.945Z,1.38
2016-11-25T08:34:21.650Z,1.34
2016-11-25T08:35:30.344Z,1.31
2016-11-25T08:36:39.357Z,1.28
2016-11-25T08:37:48.047Z,1.21
2016-11-25T08:38:56.736Z,1.21
2016-11-25T08:40:05.441Z,1.28
2016-11-25T08:41:14.136Z,1.28
2016-11-25T08:42:22.827Z,1.24
2016-11-25T08:43:31.518Z,1.2
2016-11-25T08:44:40.206Z,1.27
2016-11-25T08:45:48.910Z,1.22
2016-11-25T08:46:57.605Z,1.34
2016-11-25T08:48:06.304Z,1.38
2016-11-25T08:49:14.995Z,1.34
2016-11-25T08:50:23.997Z,1.3
2016-11-25T08:51:32.697Z,1.31
2016-11-25T08:52:41.389Z,1.34
2016-11-25T08:53:50.087Z,1.25
2016-11-25T08:54:58.779Z,1.25
2016-11-25T08:56:07.468Z,1.28
2016-11-25T08:57:42.426Z,1.3
2016-11-25T08:58:51.443Z,1.28
2016-11-25T09:00:00.161Z,1.16
2016-11-25T09:01:08.847Z,1.12
2016-11-25T09:02:17.539Z,1.09
2016-11-25T09:04:46.597Z,1.24
2016-11-25T09:05:55.298Z,1.31
2016-11-25T09:07:03.995Z,1.46
2016-11-25T09:08:12.687Z,1.53
2016-11-25T09:09:21.533Z,1.49
2016-11-25T09:10:30.226Z,1.5
2016-11-25T09:11:38.915Z,1.5
2016-11-25T09:12:47.605Z,1.48
2016-11-25T09:13:56.303Z,1.46
2016-11-25T09:15:04.999Z,1.42
2016-11-25T09:16:13.691Z,1.39
2016-11-25T09:17:22.379Z,1.43
2016-11-25T09:18:31.068Z,1.45
2016-11-25T09:19:39.765Z,1.46
2016-11-25T09:20:48.453Z,1.42
2016-11-25T09:21:57.474Z,1.5
2016-11-25T09:23:06.171Z,1.57
2016-11-25T09:24:15.181Z,1.45
2016-11-25T09:25:23.874Z,1.6
2016-11-25T09:26:32.589Z,1.57
2016-11-25T09:27:41.284Z,1.46
2016-11-25T09:28:49.988Z,1.32
2016-11-25T09:29:58.686Z,1.22
2016-11-25T09:31:07.691Z,1.16
2016-11-25T09:32:16.397Z,1.13
2016-11-25T09:33:25.090Z,1.18
2016-11-25T09:34:33.788Z,1.2
2016-11-25T09:35:42.478Z,1.16
2016-11-25T09:36:51.168Z,1.34
2016-11-25T09:37:59.859Z,1.24
2016-11-25T09:39:08.562Z,1.25
2016-11-25T09:40:17.249Z,1.21
2016-11-25T09:41:25.940Z,1.13
2016-11-25T09:42:34.631Z,1.18
2016-11-25T09:43:43.335Z,1.06
2016-11-25T09:44:52.027Z,1.06
2016-11-25T09:46:00.717Z,0.92
2016-11-25T09:47:09.414Z,1.06
2016-11-25T09:48:18.110Z,1.09
2016-11-25T09:49:26.806Z,1.1
2016-11-25T09:50:35.499Z,1.07
2016-11-25T09:51:44.192Z,1.16
2016-11-25T09:52:52.888Z,1.18
2016-11-25T09:54:01.576Z,1.2
2016-11-25T09:55:10.271Z,1.13
2016-11-25T09:56:18.963Z,1.18
2016-11-25T09:57:27.652Z,1.3
2016-11-25T09:58:36.347Z,1.39
2016-11-25T09:59:45.046Z,1.38
2016-11-25T10:00:53.738Z,1.43
2016-11-25T10:02:02.474Z,1.46
2016-11-25T10:03:11.163Z,1.48
2016-11-25T10:04:19.856Z,1.5
2016-11-25T10:05:28.543Z,1.57
2016-11-25T10:06:37.238Z,1.6
2016-11-25T10:07:45.931Z,1.66
2016-11-25T10:08:54.635Z,1.75
2016-11-25T10:10:03.320Z,1.68
2016-11-25T10:11:12.019Z,1.75
2016-11-25T10:12:20.708Z,1.7
2016-11-25T10:13:29.398Z,1.76
2016-11-25T10:14:38.089Z,1.76
2016-11-25T10:15:46.782Z,1.78
2016-11-25T10:16:55.472Z,1.79
2016-11-25T10:18:04.168Z,1.71
2016-11-25T10:19:12.864Z,1.68
2016-11-25T10:20:21.556Z,1.74
2016-11-25T10:21:30.244Z,1.7
2016-11-25T10:22:38.936Z,1.75
2016-11-25T10:23:47.630Z,1.67
2016-11-25T10:24:56.330Z,1.76
2016-11-25T10:26:05.025Z,1.76
2016-11-25T10:27:13.726Z,1.81
2016-11-25T10:28:22.416Z,1.84
2016-11-25T10:29:31.106Z,1.88
2016-11-25T10:30:39.798Z,1.85
2016-11-25T10:31:48.494Z,1.97
2016-11-25T10:32:57.192Z,1.86
2016-11-25T10:34:05.887Z,1.88
2016-11-25T10:35:14.893Z,1.85
2016-11-25T10:36:23.586Z,1.88
2016-11-25T10:37:32.276Z,1.88
2016-11-25T10:38:40.978Z,1.88
2016-11-25T10:39:49.676Z,1.92
2016-11-25T10:40:58.371Z,1.89
2016-11-25T10:42:07.062Z,1.88
2016-11-25T10:43:15.770Z,1.89
2016-11-25T10:44:24.460Z,1.93
2016-11-25T10:45:33.158Z,1.98
2016-11-25T10:46:41.852Z,1.88
2016-11-25T10:47:50.549Z,1.86
2016-11-25T10:48:59.239Z,1.95
2016-11-25T10:50:07.939Z,1.95
2016-11-25T10:51:16.630Z,1.97
2016-11-25T10:52:25.317Z,2.23
2016-11-25T10:53:34.011Z,2.34
2016-11-25T10:54:43.026Z,2.37
2016-11-25T10:55:51.747Z,2.37
2016-11-25T10:57:00.441Z,2.34
2016-11-25T10:58:09.134Z,2.39
2016-11-25T10:59:17.830Z,2.34
2016-11-25T11:00:26.855Z,2.15
2016-11-25T11:01:35.579Z,2.01
2016-11-25T11:02:44.270Z,2.01
2016-11-25T11:03:52.962Z,1.93
2016-11-25T11:05:01.669Z,1.98
2016-11-25T11:06:10.361Z,2.05
2016-11-25T11:07:19.053Z,1.93
2016-11-25T11:08:27.747Z,1.97
2016-11-25T11:09:36.442Z,2.05
2016-11-25T11:10:45.133Z,1.97
2016-11-25T11:11:53.825Z,2.05
2016-11-25T11:13:02.524Z,1.98
2016-11-25T11:14:11.532Z,2.14
2016-11-25T11:15:20.228Z,2.12
2016-11-25T11:16:28.924Z,2.16
2016-11-25T11:17:37.623Z,2.16
2016-11-25T11:18:46.316Z,2.18
2016-11-25T11:19:55.008Z,2.03
2016-11-25T11:21:03.702Z,2.12
2016-11-25T11:22:12.403Z,2.15
2016-11-25T11:23:21.101Z,2.14
2016-11-25T11:24:29.790Z,2.21
2016-11-25T11:25:38.489Z,2.39
2016-11-25T11:26:47.185Z,2.4
2016-11-25T11:27:55.874Z,2.46
2016-11-25T11:29:04.887Z,2.47
2016-11-25T11:30:13.581Z,2.64
2016-11-25T11:31:22.277Z,2.64
2016-11-25T11:32:31.290Z,2.72
2016-11-25T11:33:39.981Z,2.61
2016-11-25T11:34:49.325Z,2.64
2016-11-25T11:35:58.017Z,2.76
2016-11-25T11:37:06.713Z,2.73
2016-11-25T11:38:15.407Z,2.79
2016-11-25T11:39:24.117Z,2.76
2016-11-25T11:40:32.851Z,2.79
2016-11-25T11:41:41.546Z,2.75
2016-11-25T11:42:50.241Z,2.76
2016-11-25T11:43:58.935Z,2.85
2016-11-25T11:45:07.630Z,2.88
2016-11-25T11:46:16.323Z,2.87
2016-11-25T11:47:25.016Z,2.85
2016-11-25T11:48:33.709Z,2.85
2016-11-25T11:49:42.405Z,2.88
2016-11-25T11:50:51.099Z,2.76
2016-11-25T11:51:59.793Z,2.77
2016-11-25T11:53:08.491Z,2.7
2016-11-25T11:54:17.186Z,2.79
2016-11-25T11:55:25.877Z,2.73
2016-11-25T11:56:34.576Z,2.72
2016-11-25T11:57:43.267Z,2.79
2016-11-25T11:58:52.003Z,2.82
2016-11-25T12:00:00.698Z,2.75
2016-11-25T12:01:09.391Z,2.87
2016-11-25T12:02:18.089Z,2.9
2016-11-25T12:03:26.782Z,2.91
2016-11-25T12:04:35.475Z,2.91
2016-11-25T12:05:44.173Z,3.01
2016-11-25T12:06:52.902Z,3.01
2016-11-25T12:08:01.596Z,3.21
2016-11-25T12:09:10.295Z,3.26
2016-11-25T12:10:18.987Z,3.41
2016-11-25T12:11:27.682Z,3.61
2016-11-25T12:12:36.378Z,3.7
2016-11-25T12:13:45.070Z,3.68
2016-11-25T12:14:53.762Z,3.74
2016-11-25T12:16:02.490Z,3.61
2016-11-25T12:17:11.185Z,3.49
2016-11-25T12:18:19.915Z,3.33
2016-11-25T12:19:28.608Z,3.33
2016-11-25T12:20:37.300Z,3.3
2016-11-25T12:21:45.994Z,3.61
2016-11-25T12:22:54.695Z,3.63
2016-11-25T12:24:03.391Z,3.73
2016-11-25T12:25:12.088Z,3.81
2016-11-25T12:26:20.780Z,3.81
2016-11-25T12:27:29.474Z,3.78
2016-11-25T12:28:38.201Z,3.76
2016-11-25T12:29:47.004Z,3.77
2016-11-25T12:30:55.725Z,3.7
2016-11-25T12:32:04.419Z,3.68
2016-11-25T12:33:13.109Z,3.76
2016-11-25T12:34:22.128Z,3.81
2016-11-25T12:35:30.873Z,3.89
2016-11-25T12:36:39.566Z,4
2016-11-25T12:37:48.273Z,4.16
2016-11-25T12:38:56.960Z,4.22
2016-11-25T12:40:05.657Z,4.38
2016-11-25T12:41:14.349Z,4.43
2016-11-25T12:42:23.042Z,4.4
2016-11-25T12:43:31.733Z,4.43
2016-11-25T12:44:40.431Z,4.56
2016-11-25T12:45:49.121Z,4.49
2016-11-25T12:46:57.817Z,4.52
2016-11-25T12:48:06.509Z,4.42
2016-11-25T12:49:15.206Z,4.5
2016-11-25T12:50:23.906Z,4.14
2016-11-25T12:51:32.596Z,3.76
2016-11-25T12:52:41.287Z,3.4
2016-11-25T12:53:49.985Z,3.22
2016-11-25T12:54:58.678Z,3.05
2016-11-25T12:56:07.689Z,2.88
2016-11-25T12:57:16.387Z,2.88
2016-11-25T12:58:25.078Z,2.94
2016-11-25T12:59:33.776Z,3.09
2016-11-25T13:00:42.469Z,3.41
2016-11-25T13:01:51.162Z,3.78
2016-11-25T13:02:59.857Z,4.14
2016-11-25T13:04:08.549Z,4.45
2016-11-25T13:05:17.249Z,4.63
2016-11-25T13:06:25.937Z,4.76
2016-11-25T13:07:34.634Z,4.97
2016-11-25T13:08:43.328Z,5.12
2016-11-25T13:09:52.030Z,5.16
2016-11-25T13:11:00.726Z,5.33
2016-11-25T13:12:09.433Z,5.46
2016-11-25T13:13:18.157Z,5.54
2016-11-25T13:14:26.857Z,5.61
2016-11-25T13:15:35.550Z,5.77
2016-11-25T13:16:44.275Z,5.83
2016-11-25T13:17:52.977Z,5.87
2016-11-25T13:19:01.673Z,5.88
2016-11-25T13:20:10.368Z,5.99
2016-11-25T13:21:19.062Z,5.91
2016-11-25T13:22:27.761Z,5.9
2016-11-25T13:23:36.453Z,5.95
2016-11-25T13:24:45.149Z,5.97
2016-11-25T13:25:53.849Z,5.94
2016-11-25T13:27:02.538Z,5.98
2016-11-25T13:28:11.258Z,6.06
2016-11-25T13:29:19.948Z,6.12
2016-11-25T13:30:28.652Z,6.15
2016-11-25T13:31:37.345Z,6.12
2016-11-25T13:32:46.075Z,6.1
2016-11-25T13:33:54.764Z,6.16
2016-11-25T13:35:03.456Z,6.31
2016-11-25T13:36:12.151Z,6.29
2016-11-25T13:37:20.851Z,6.31
2016-11-25T13:38:29.550Z,6.25
2016-11-25T13:39:38.246Z,6.32
2016-11-25T13:40:46.948Z,6.17
2016-11-25T13:41:55.646Z,6.29
2016-11-25T13:43:04.343Z,6.13
2016-11-25T13:44:13.028Z,6.31
2016-11-25T13:45:21.738Z,6.34
2016-11-25T13:46:30.427Z,6.34
2016-11-25T13:47:39.123Z,6.39
2016-11-25T13:48:47.818Z,6.38
2016-11-25T13:49:56.513Z,6.38
2016-11-25T13:51:05.531Z,6.41
2016-11-25T13:52:14.232Z,6.49
2016-11-25T13:53:22.931Z,6.47
2016-11-25T13:54:31.651Z,6.49
2016-11-25T13:55:40.352Z,6.41
2016-11-25T13:56:49.047Z,6.36
2016-11-25T13:57:57.751Z,6.36
2016-11-25T13:59:06.458Z,6.38
2016-11-25T14:00:15.153Z,6.25
2016-11-25T14:01:23.884Z,6.34
2016-11-25T14:02:32.894Z,6.34
2016-11-25T14:03:41.587Z,6.39
2016-11-25T14:04:50.291Z,6.34
2016-11-25T14:05:59.309Z,6.31
2016-11-25T14:07:08.004Z,6.35
2016-11-25T14:08:16.703Z,6.46
2016-11-25T14:09:25.396Z,6.49
2016-11-25T14:10:34.092Z,6.65
2016-11-25T14:11:42.785Z,6.52
2016-11-25T14:12:51.483Z,6.57
2016-11-25T14:14:00.178Z,6.64
2016-11-25T14:15:08.885Z,6.62
2016-11-25T14:16:17.579Z,6.74
2016-11-25T14:17:26.278Z,6.7
2016-11-25T14:18:35.287Z,6.78
2016-11-25T14:19:43.987Z,6.8
2016-11-25T14:20:52.718Z,6.78
2016-11-25T14:22:01.418Z,6.78
2016-11-25T14:23:10.430Z,6.74
2016-11-25T14:24:19.130Z,6.8
2016-11-25T14:25:27.833Z,6.75
2016-11-25T14:26:36.541Z,6.71
2016-11-25T14:27:45.230Z,6.7
2016-11-25T14:28:53.932Z,6.71
2016-11-25T14:30:02.942Z,6.57
2016-11-25T14:31:11.635Z,6.62
2016-11-25T14:32:20.355Z,6.67
2016-11-25T14:33:29.048Z,6.78
2016-11-25T14:34:37.737Z,6.77
2016-11-25T14:35:46.436Z,6.72
2016-11-25T14:36:55.127Z,6.78
2016-11-25T14:38:03.826Z,6.89
2016-11-25T14:39:12.840Z,7.1
2016-11-25T14:40:21.535Z,7.08
2016-11-25T14:41:30.244Z,7.07
2016-11-25T14:42:38.947Z,7.08
2016-11-25T14:43:47.640Z,7.01
2016-11-25T14:44:56.364Z,6.93
2016-11-25T14:46:05.053Z,6.92
2016-11-25T14:47:13.785Z,6.92
2016-11-25T14:48:22.478Z,6.77
2016-11-25T14:49:31.181Z,6.78
2016-11-25T14:50:39.881Z,6.78
2016-11-25T14:51:48.591Z,6.78
2016-11-25T14:52:57.285Z,6.74
2016-11-25T14:54:06.013Z,6.8
2016-11-25T14:55:14.716Z,6.78
2016-11-25T14:56:23.412Z,6.83
2016-11-25T14:57:32.108Z,6.86
2016-11-25T14:58:40.799Z,6.95
2016-11-25T14:59:49.499Z,6.92
2016-11-25T15:00:58.193Z,6.93
2016-11-25T15:02:06.894Z,6.89
2016-11-25T15:03:15.597Z,6.9
2016-11-25T15:04:24.299Z,6.96
2016-11-25T15:05:32.995Z,7
2016-11-25T15:06:41.687Z,6.93
2016-11-25T15:07:50.387Z,6.9
2016-11-25T15:08:59.088Z,6.93
2016-11-25T15:10:07.797Z,6.87
2016-11-25T15:11:16.501Z,6.89
2016-11-25T15:12:25.219Z,6.78
2016-11-25T15:13:33.911Z,6.85
2016-11-25T15:14:42.607Z,6.95
2016-11-25T15:15:51.305Z,6.92
2016-11-25T15:17:00.029Z,6.92
2016-11-25T15:18:08.725Z,7.07
2016-11-25T15:19:17.422Z,6.85